• Join FlightAware (Why Join?)
  • Login
  • US Flag 
10:01PM EDT


 

Airport Tracker/Info


-or-


 

Live Flight TrackerFlight Track Log ✈ FDX1254 ✈ 24-Apr-2013 ✈ KPVD - KFWA

Flight Track Log - Related Links

Times and Time Zones

All times are in EDT time to prevent confusion due to time zone crossing. See the FDX1254 flight status page for this flight to view local times or setup timezone preferences in your user account.

Time Position Orientation Groundspeed Altitude Reporting Facility
EDT Latitude Longitude Course Direction KTS MPH feet Rate Location/Type
08:49PM 41.7800 -71.6750 298° West 307 353 11,700  Level FlightAware
08:50PM 41.8090 -71.7480 298° West 349 402 13,500 3,120 Climbing FlightAware
08:51PM 41.8440 -71.8330 299° West 367 422 16,200 3,240 Climbing FlightAware
08:51PM 41.8780 -71.9150 299° West 388 447 18,100 2,880 Climbing FlightAware
08:52PM 41.9090 -71.9910 299° West 400 460 19,800 2,760 Climbing FlightAware
08:53PM 41.9620 -72.1220 299° West 413 475 22,500 2,760 Climbing FlightAware
08:54PM 42.0090 -72.2380 299° West 440 506 24,700 2,520 Climbing FlightAware
08:54PM 42.0410 -72.3180 298° West 451 519 25,900 2,160 Climbing FlightAware
08:55PM 42.0830 -72.4230 298° West 454 522 27,600 2,400 Climbing FlightAware
08:56PM 42.1380 -72.5600 298° West 464 534 29,700 2,760 Climbing FlightAware
08:56PM 42.1790 -72.6630 298° West 453 521 31,800 3,180 Climbing FlightAware
08:57PM 42.2190 -72.7640 298° West 437 503 34,000 2,880 Climbing FlightAware
08:58PM 42.2580 -72.8630 298° West 426 490 35,900 2,700 Climbing FlightAware
08:58PM 42.2860 -72.9630 291° West 390 449 37,900 2,280 Climbing FlightAware
08:59PM 42.2830 -73.0550 268° West 379 436 39,000 1,260 Climbing FlightAware
09:00PM 42.2700 -73.1990 263° West 385 443 40,000 600 Climbing FlightAware
09:01PM 42.2610 -73.2940 263° West 384 442 40,000  Level FlightAware
09:01PM 42.2520 -73.3947 263° West 387 445 40,000  Level FlightAware ADS-B
09:02PM 42.2456 -73.4668 263° West 390 449 40,000  Level FlightAware ADS-B
09:03PM 42.2363 -73.5704 263° West 390 449 40,000  Level FlightAware ADS-B
09:03PM 42.2294 -73.6451 263° West 389 448 40,000  Level FlightAware ADS-B
09:04PM 42.2224 -73.7192 263° West 387 445 40,000  Level FlightAware ADS-B
09:04PM 42.2144 -73.8074 263° West 385 443 40,000  Level FlightAware ADS-B
09:05PM 42.2071 -73.8832 263° West 382 440 40,000  Level FlightAware ADS-B
09:05PM 42.2002 -73.9563 263° West 381 438 40,000  Level FlightAware ADS-B
09:06PM 42.1935 -74.0288 263° West 378 435 40,000  Level FlightAware ADS-B
09:06PM 42.1865 -74.1010 263° West 377 434 40,000  Level FlightAware ADS-B
09:07PM 42.1794 -74.1731 262° West 376 433 40,000  Level FlightAware ADS-B
09:07PM 42.1720 -74.2519 263° West 375 432 40,000  Level FlightAware ADS-B
09:08PM 42.1650 -74.3213 262° West 375 432 40,000  Level FlightAware ADS-B
09:09PM 42.1579 -74.3952 263° West 374 430 40,000  Level FlightAware ADS-B
09:09PM 42.1507 -74.4665 262° West 372 428 40,000  Level FlightAware ADS-B
09:10PM 42.1435 -74.5397 262° West 370 426 40,000  Level FlightAware ADS-B
09:10PM 42.1366 -74.6081 262° West 370 426 40,000  Level FlightAware ADS-B
09:11PM 42.1295 -74.6787 262° West 369 425 40,000  Level FlightAware ADS-B
09:11PM 42.1225 -74.7470 262° West 369 425 40,000  Level FlightAware ADS-B
09:12PM 42.1153 -74.8175 262° West 369 425 40,000  Level FlightAware ADS-B
09:12PM 42.1081 -74.8879 262° West 369 425 40,000  Level FlightAware ADS-B
09:13PM 42.1009 -74.9563 262° West 371 427 40,000  Level FlightAware ADS-B
09:13PM 42.0933 -75.0295 262° West 372 428 40,000  Level FlightAware ADS-B
09:14PM 42.0860 -75.0983 262° West 374 430 40,000  Level FlightAware ADS-B
09:14PM 42.0775 -75.1792 262° West 377 434 40,000  Level FlightAware ADS-B
09:15PM 42.0697 -75.2538 262° West 381 438 40,000  Level FlightAware ADS-B
09:15PM 42.0639 -75.2955 259° West 380 437 40,000  Level FlightAware ADS-B
09:15PM 42.0572 -75.3248 253° West 379 436 40,000  Level FlightAware ADS-B
09:16PM 42.0474 -75.3525 245° Southwest 378 435 40,000  Level FlightAware ADS-B
09:16PM 42.0168 -75.4291 242° Southwest 380 437 40,000  Level FlightAware ADS-B
09:17PM 41.9906 -75.4927 241° Southwest 378 435 40,000  Level FlightAware ADS-B
09:18PM 41.9453 -75.6015 241° Southwest 378 435 40,000  Level FlightAware ADS-B
09:18PM 41.9170 -75.6685 240° Southwest 373 429 40,000  Level FlightAware ADS-B
09:19PM 41.8914 -75.7323 242° Southwest 364 419 40,000  Level FlightAware ADS-B
09:19PM 41.8672 -75.7913 241° Southwest 359 413 40,000  Level FlightAware ADS-B
09:20PM 41.8406 -75.8546 241° Southwest 352 405 40,000  Level FlightAware ADS-B
09:20PM 41.8164 -75.9113 240° Southwest 350 403 40,000  Level FlightAware ADS-B
09:21PM 41.7926 -75.9677 241° Southwest 347 399 40,000  Level FlightAware ADS-B
09:21PM 41.7683 -76.0256 241° Southwest 347 399 40,000  Level FlightAware ADS-B
09:22PM 41.7434 -76.0858 241° Southwest 351 404 40,000  Level FlightAware ADS-B
09:22PM 41.7193 -76.1429 241° Southwest 354 407 40,000  Level FlightAware ADS-B
09:23PM 41.6940 -76.2025 240° Southwest 359 413 40,000  Level FlightAware ADS-B
09:23PM 41.6653 -76.2703 240° Southwest 359 413 40,000  Level FlightAware ADS-B
09:24PM 41.6392 -76.3322 241° Southwest 360 414 40,000  Level FlightAware ADS-B
09:24PM 41.6138 -76.3924 241° Southwest 363 418 40,000  Level FlightAware ADS-B
09:25PM 41.5887 -76.4513 240° Southwest 366 421 40,000  Level FlightAware ADS-B
09:25PM 41.5627 -76.5126 240° Southwest 370 426 40,000  Level FlightAware ADS-B
09:26PM 41.5357 -76.5760 240° Southwest 370 426 40,000  Level FlightAware ADS-B
09:26PM 41.5064 -76.6452 241° Southwest 370 426 40,000  Level FlightAware ADS-B
09:27PM 41.4800 -76.7067 240° Southwest 371 427 40,000  Level FlightAware ADS-B
09:28PM 41.4537 -76.7663 240° Southwest 372 428 40,000  Level FlightAware ADS-B
09:28PM 41.4275 -76.8283 241° Southwest 374 430 40,000  Level FlightAware ADS-B
09:29PM 41.3912 -76.9124 240° Southwest 377 434 40,000  Level FlightAware ADS-B
09:29PM 41.3638 -76.9766 240° Southwest 375 432 40,000  Level FlightAware ADS-B
09:30PM 41.3361 -77.0400 240° Southwest 368 423 40,000  Level FlightAware ADS-B
09:30PM 41.3070 -77.1065 240° Southwest 369 425 40,000  Level FlightAware ADS-B
09:31PM 41.2690 -77.1943 240° Southwest 366 421 40,000  Level FlightAware ADS-B
09:32PM 41.2366 -77.2682 240° Southwest 364 419 40,000  Level FlightAware ADS-B
09:33PM 41.1870 -77.3800 240° Southwest 362 417 40,000  Level FlightAware
09:33PM 41.1744 -77.4090 240° Southwest 363 418 40,000  Level FlightAware ADS-B
09:34PM 41.1405 -77.4880 240° Southwest 363 418 40,000  Level FlightAware ADS-B
09:34PM 41.1122 -77.5510 239° Southwest 362 417 40,000  Level FlightAware ADS-B
09:35PM 41.0810 -77.6220 240° Southwest 360 414 40,000  Level FlightAware
09:35PM 41.0676 -77.6522 240° Southwest 362 417 40,000  Level FlightAware ADS-B
09:36PM 41.0410 -77.7130 240° Southwest 361 415 40,000  Level FlightAware
09:36PM 41.0148 -77.7702 239° Southwest 360 414 40,000  Level FlightAware ADS-B
09:37PM 40.9750 -77.8610 240° Southwest 358 412 40,000  Level FlightAware
09:38PM 40.9440 -77.9280 239° Southwest 358 412 40,000  Level FlightAware
09:38PM 40.9510 -77.9120 60° Northeast 358 412 40,000  Level FlightAware
09:39PM 40.9150 -77.9920 239° Southwest 358 412 40,000  Level FlightAware
09:40PM 40.8860 -78.0560 239° Southwest 358 412 40,000  Level FlightAware
09:40PM 40.8570 -78.1200 239° Southwest 358 412 40,000  Level FlightAware
09:41PM 40.8280 -78.1830 239° Southwest 358 412 40,000  Level FlightAware
09:42PM 40.7990 -78.2470 239° Southwest 358 412 40,000  Level FlightAware
09:42PM 40.7700 -78.3110 239° Southwest 358 412 40,000  Level FlightAware
09:43PM 40.7340 -78.3900 239° Southwest 358 412 40,000  Level FlightAware
09:44PM 40.7050 -78.4540 239° Southwest 358 412 40,000  Level FlightAware
09:44PM 40.9200 -77.9930 58° Northeast 40,000  Level FlightAware
09:47PM 40.8730 -79.1730 267° West 401 461 40,000  Level FlightAware
09:47PM 40.8680 -79.2850 267° West 398 458 40,000  Level FlightAware
09:48PM 40.8650 -79.3550 267° West 396 456 40,000  Level FlightAware
09:49PM 40.8590 -79.4900 267° West 394 453 40,000  Level FlightAware
09:49PM 40.8550 -79.5930 267° West 392 451 40,000  Level FlightAware
09:50PM 40.8510 -79.6860 267° West 388 447 40,000  Level FlightAware
09:51PM 40.8450 -79.7950 266° West 375 432 40,000  Level FlightAware
09:51PM 40.8410 -79.8860 267° West 375 432 40,000  Level FlightAware
09:52PM 40.8360 -79.9880 266° West 385 443 40,000  Level FlightAware
09:53PM 40.8310 -80.0830 266° West 389 448 40,000  Level FlightAware
09:54PM 40.8270 -80.1770 267° West 388 447 40,000  Level FlightAware
09:54PM 40.8280 -80.2810 271° West 382 440 40,000  Level FlightAware
09:55PM 40.8340 -80.3780 275° West 379 436 40,000  Level FlightAware
09:56PM 40.8380 -80.4670 273° West 376 433 40,000  Level FlightAware
09:56PM 40.8430 -80.5700 274° West 372 428 40,000  Level FlightAware
09:57PM 40.8480 -80.6600 274° West 369 425 40,000  Level FlightAware
09:58PM 40.8530 -80.7610 274° West 368 423 40,000  Level FlightAware
09:58PM 40.8570 -80.8510 273° West 368 423 40,000  Level FlightAware
09:59PM 40.8620 -80.9520 274° West 368 423 40,000  Level FlightAware
10:00PM 40.8660 -81.0440 273° West 367 422 40,000  Level FlightAware
10:01PM 40.8700 -81.1330 273° West 365 420 40,000  Level FlightAware
10:01PM 40.8740 -81.2200 274° West 365 420 40,000  Level FlightAware
10:02PM 40.8780 -81.3180 273° West 366 421 40,000  Level FlightAware
10:03PM 40.8820 -81.4180 273° West 369 425 40,000  Level FlightAware
10:03PM 40.8860 -81.5090 273° West 372 428 40,000  Level FlightAware
10:04PM 40.8900 -81.6110 273° West 375 432 40,000  Level FlightAware
10:05PM 40.8940 -81.7060 273° West 378 435 40,000  Level FlightAware
10:05PM 40.8960 -81.7960 272° West 381 438 40,000  Level FlightAware
10:06PM 40.8980 -81.9050 271° West 383 441 40,000  Level FlightAware
10:07PM 40.9000 -81.9990 272° West 385 443 40,000  Level FlightAware
10:08PM 40.9020 -82.0930 272° West 386 444 40,000  Level FlightAware
10:08PM 40.9040 -82.1970 271° West 386 444 40,000  Level FlightAware
10:09PM 40.9050 -82.2880 271° West 384 442 40,000  Level FlightAware
10:10PM 40.9070 -82.3940 271° West 383 441 40,000  Level FlightAware
10:10PM 40.9100 -82.4890 272° West 381 438 40,000  Level FlightAware
10:11PM 40.9140 -82.5820 273° West 379 436 40,000 -300 Level FlightAware
10:12PM 40.9180 -82.6850 273° West 374 430 39,600 -720 Descending FlightAware
10:12PM 40.9210 -82.7760 273° West 370 426 39,000 -1,020 Descending FlightAware
10:13PM 40.9250 -82.8780 273° West 368 423 38,200 -1,200 Descending FlightAware
10:14PM 40.9280 -82.9660 273° West 371 427 37,300 -1,200 Descending FlightAware
10:15PM 40.9320 -83.0720 273° West 368 423 36,500 -900 Descending FlightAware
10:15PM 40.9350 -83.1560 273° West 357 411 36,100 -420 Descending FlightAware
10:16PM 40.9380 -83.2450 273° West 355 409 36,000 -480 Descending FlightAware
10:17PM 40.9410 -83.3420 272° West 357 411 35,500 -1,200 Descending FlightAware
10:17PM 40.9440 -83.4290 273° West 363 418 34,300 -1,980 Descending FlightAware
10:18PM 40.9470 -83.5330 272° West 365 420 32,700 -2,220 Descending FlightAware
10:19PM 40.9500 -83.6200 273° West 365 420 31,200 -3,180 Descending FlightAware
10:19PM 40.9520 -83.7120 272° West 374 430 28,500 -4,140 Descending FlightAware
10:20PM 40.9550 -83.8130 272° West 374 430 25,400 -3,900 Descending FlightAware
10:21PM 40.9580 -83.9020 273° West 367 422 23,000 -3,600 Descending FlightAware
10:22PM 40.9610 -84.0040 272° West 362 417 20,300 -3,540 Descending FlightAware
10:22PM 40.9630 -84.0920 272° West 359 413 18,000 -3,600 Descending FlightAware
10:23PM 40.9650 -84.1780 272° West 362 417 15,500 -3,720 Descending FlightAware
10:24PM 40.9670 -84.2770 272° West 358 412 12,800 -3,120 Descending FlightAware
10:24PM 40.9680 -84.3640 271° West 348 400 11,100 -1,500 Descending FlightAware
10:25PM 40.9700 -84.4460 272° West 305 351 10,800 -540 Descending FlightAware
10:26PM 40.9740 -84.5220 274° West 264 304 10,400 -840 Descending FlightAware
10:26PM 40.9850 -84.5690 287° West 254 292 9,800 -1,320 Descending FlightAware
10:27PM 40.9940 -84.6040 289° West 253 291 9,200 -1,500 Descending FlightAware
10:27PM 41.0000 -84.6250 291° West 253 291 8,800 -1,620 Descending FlightAware
10:27PM 41.0120 -84.6680 290° West 253 291 8,000 -1,500 Descending FlightAware
10:28PM 41.0160 -84.6830 289° West 252 290 7,800 -1,500 Descending FlightAware
10:28PM 41.0290 -84.7260 292° West 251 289 7,000 -1,080 Descending FlightAware
10:29PM 41.0440 -84.7820 290° West 250 288 6,600 -1,200 Descending FlightAware
10:29PM 41.0569 -84.8219 290° West 251 289 5,600 -1,500 Descending Chicago Center
10:30PM 41.0800 -84.9061 290° West 248 285 4,300 -1,320 Descending Chicago Center
10:31PM 41.1028 -84.9872 290° West 242 278 2,900 -840 Descending Chicago Center
10:32PM 41.0842 -85.0547 250° West 226 260 2,600 -300 Descending Chicago Center
10:33PM 41.0514 -85.0964 224° Southwest 190 219 2,400 -360 Descending Chicago Center
10:34PM 41.0300 -85.1250 225° Southwest 148 170 1,900 -420 Descending Chicago Center
10:35PM 41.0075 -85.1553 225° Southwest 128 147 1,600 -300 Descending Chicago Center